Time;durP1;ratioP1;P1;durP2;ratioP2;P2;SDS_P1;SDS_P2;PMS_P1;PMS_P2;Temp;Humidity;BMP_temperature;BMP_pressure;BME280_temperature;BME280_humidity;BME280_pressure;Samples;Min_cycle;Max_cycle;Signal;HPM_P1;HPM_P2
2023/06/28 00:02:16;;;;;;;11.52;2.95;;;;;;;39.29;nan;101145.13;5108376;28;20066;-51
2023/06/28 00:04:42;;;;;;;8.88;3.17;;;;;;;38.17;nan;101144.75;5099401;28;20126;-50
2023/06/28 00:07:10;;;;;;;5.65;2.80;;;;;;;37.86;nan;101139.63;5105796;28;20051;-50
2023/06/28 00:09:37;;;;;;;9.57;2.78;;;;;;;35.70;nan;101148.47;5101267;28;20059;-51
2023/06/28 00:12:04;;;;;;;19.08;3.28;;;;;;;36.57;nan;101141.97;5105596;28;20063;-51
2023/06/28 00:14:31;;;;;;;24.85;3.85;;;;;;;38.44;nan;101143.34;5105466;28;20497;-51
2023/06/28 00:16:59;;;;;;;3.33;2.53;;;;;;;37.15;nan;101143.19;5099888;28;20048;-51
2023/06/28 00:19:29;;;;;;;9.10;2.78;;;;;;;38.73;nan;101147.78;5101276;28;20052;-49
2023/06/28 00:21:56;;;;;;;23.05;4.13;;;;;;;35.61;nan;101150.69;5100815;28;20060;-51
2023/06/28 00:24:23;;;;;;;8.73;3.00;;;;;;;39.34;nan;101149.91;5114743;28;20107;-50
2023/06/28 00:26:50;;;;;;;8.07;2.58;;;;;;;37.99;nan;101147.63;5105535;28;20109;-51
2023/06/28 00:29:16;;;;;;;4.55;2.88;;;;;;;36.61;nan;101154.19;5103224;28;20055;-51
2023/06/28 00:31:43;;;;;;;12.65;3.70;;;;;;;36.74;nan;101154.00;5104205;28;20052;-51
2023/06/28 00:34:10;;;;;;;10.52;3.17;;;;;;;37.89;nan;101155.69;5094807;28;20052;-51
2023/06/28 00:36:36;;;;;;;7.97;2.92;;;;;;;39.71;nan;101156.81;5098133;28;20106;-51
2023/06/28 00:39:03;;;;;;;7.45;2.67;;;;;;;37.76;nan;101159.56;5100190;28;20043;-49
2023/06/28 00:41:30;;;;;;;10.13;3.47;;;;;;;39.29;nan;101160.88;5093834;28;20047;-49
2023/06/28 00:43:57;;;;;;;13.65;3.72;;;;;;;36.93;nan;101162.22;5097622;28;20055;-51
2023/06/28 00:46:23;;;;;;;7.97;3.83;;;;;;;35.93;nan;101168.97;5098293;28;20063;-49
2023/06/28 00:48:50;;;;;;;9.68;3.38;;;;;;;39.25;nan;101160.56;5102819;28;20100;-49
2023/06/28 00:51:18;;;;;;;12.90;3.17;;;;;;;37.13;nan;101159.13;5112672;28;20058;-52
2023/06/28 00:53:44;;;;;;;10.93;3.25;;;;;;;38.16;nan;101156.88;5100622;28;20052;-50
2023/06/28 00:56:11;;;;;;;8.77;4.15;;;;;;;37.03;nan;101156.97;5099604;28;20070;-50
2023/06/28 00:58:39;;;;;;;10.63;4.03;;;;;;;37.05;nan;101163.06;5093159;28;20093;-52
2023/06/28 01:01:06;;;;;;;18.23;3.83;;;;;;;39.12;nan;101166.41;5106359;27;20055;-50
2023/06/28 01:03:35;;;;;;;12.32;3.88;;;;;;;37.70;nan;101166.88;5102525;28;20076;-50
2023/06/28 01:06:03;;;;;;;9.73;3.30;;;;;;;37.50;nan;101169.13;5097547;28;20051;-51
2023/06/28 01:08:30;;;;;;;8.50;4.32;;;;;;;37.95;nan;101163.00;5101928;28;20433;-51
2023/06/28 01:10:57;;;;;;;10.60;3.97;;;;;;;38.07;nan;101166.56;5095718;28;20055;-51
2023/06/28 01:13:24;;;;;;;8.80;2.70;;;;;;;36.45;nan;101171.34;5108806;28;20051;-51
2023/06/28 01:15:51;;;;;;;10.45;3.03;;;;;;;36.79;nan;101174.50;5110644;28;20047;-51
2023/06/28 01:18:21;;;;;;;8.95;3.30;;;;;;;38.03;nan;101176.44;5095538;28;20507;-51
2023/06/28 01:20:49;;;;;;;7.53;3.00;;;;;;;36.27;nan;101175.78;5098973;28;20544;-51
2023/06/28 01:23:16;;;;;;;13.02;3.42;;;;;;;36.77;nan;101174.75;5101628;28;20100;-51
2023/06/28 01:25:44;;;;;;;9.50;3.88;;;;;;;36.90;nan;101173.69;5096710;28;20051;-51
2023/06/28 01:28:11;;;;;;;10.27;3.70;;;;;;;38.50;nan;101176.31;5103774;28;20375;-51
2023/06/28 01:30:38;;;;;;;8.95;3.17;;;;;;;37.05;nan;101174.09;5100972;28;20058;-51
2023/06/28 01:33:06;;;;;;;11.75;4.00;;;;;;;37.18;nan;101177.72;5094829;28;20055;-51
2023/06/28 01:35:33;;;;;;;10.32;3.40;;;;;;;38.06;nan;101170.41;5101645;28;20134;-51
2023/06/28 01:38:00;;;;;;;10.10;3.75;;;;;;;39.09;nan;101175.22;5101187;28;20097;-51
2023/06/28 01:40:27;;;;;;;7.93;3.63;;;;;;;36.05;nan;101178.16;5098278;28;20051;-52
2023/06/28 01:42:55;;;;;;;11.75;3.45;;;;;;;36.45;nan;101171.34;5102827;28;20052;-51
2023/06/28 01:45:22;;;;;;;10.50;3.40;;;;;;;33.90;nan;101177.00;5100644;28;20047;-51
2023/06/28 01:47:48;;;;;;;19.85;3.90;;;;;;;36.70;nan;101174.81;5113381;27;20047;-51
2023/06/28 01:50:16;;;;;;;10.27;4.03;;;;;;;37.02;nan;101174.56;5111862;28;20059;-50
2023/06/28 01:52:43;;;;;;;7.80;3.60;;;;;;;34.77;nan;101177.53;5103838;28;20052;-50
2023/06/28 01:55:11;;;;;;;18.17;4.13;;;;;;;38.45;nan;101176.22;5118301;27;20059;-51
2023/06/28 01:57:38;;;;;;;11.60;3.67;;;;;;;35.80;nan;101181.81;5104009;27;20063;-50
2023/06/28 02:00:09;;;;;;;11.52;3.83;;;;;;;37.02;nan;101176.47;5094502;28;20048;-51
2023/06/28 02:02:35;;;;;;;8.63;2.92;;;;;;;37.78;nan;101180.31;5093720;28;20620;-51
2023/06/28 02:05:02;;;;;;;10.98;3.20;;;;;;;39.31;nan;101178.03;5119295;27;20062;-50
2023/06/28 02:07:29;;;;;;;11.95;3.05;;;;;;;38.50;nan;101179.06;5097820;27;20058;-51
2023/06/28 02:09:55;;;;;;;14.52;3.80;;;;;;;34.78;nan;101184.72;5094346;28;20062;-51
2023/06/28 02:12:22;;;;;;;11.77;4.20;;;;;;;36.45;nan;101187.84;5098778;28;20055;-50
2023/06/28 02:14:51;;;;;;;7.68;3.05;;;;;;;37.24;nan;101174.03;5117338;27;20052;-50
2023/06/28 02:17:20;;;;;;;6.72;3.20;;;;;;;36.74;nan;101181.53;5113103;28;20051;-51
2023/06/28 02:19:47;;;;;;;11.35;3.67;;;;;;;36.36;nan;101168.91;5111847;27;20502;-51
2023/06/28 02:22:15;;;;;;;24.33;5.15;;;;;;;36.14;nan;101175.94;5113667;27;20047;-51
2023/06/28 02:24:42;;;;;;;10.95;3.40;;;;;;;35.94;nan;101167.94;5119393;27;20052;-50
2023/06/28 02:27:09;;;;;;;12.52;3.40;;;;;;;36.34;nan;101170.22;5112706;28;20051;-50
2023/06/28 02:29:36;;;;;;;17.23;4.55;;;;;;;35.56;nan;101169.75;5112918;27;20112;-50
2023/06/28 02:32:03;;;;;;;12.27;4.35;;;;;;;36.80;nan;101167.91;5112547;28;20048;-50
2023/06/28 02:34:30;;;;;;;14.57;3.67;;;;;;;34.48;nan;101163.31;5105053;28;20368;-52
2023/06/28 02:36:57;;;;;;;10.55;3.85;;;;;;;33.32;nan;101164.81;5104416;28;20048;-50
2023/06/28 02:39:23;;;;;;;12.40;3.33;;;;;;;33.02;nan;101167.94;5105454;28;20070;-51
2023/06/28 02:41:50;;;;;;;12.32;4.13;;;;;;;34.68;nan;101156.88;5101072;28;20055;-51
2023/06/28 02:44:17;;;;;;;17.58;3.92;;;;;;;36.74;nan;101165.03;5105901;28;20051;-51
2023/06/28 02:46:44;;;;;;;9.20;4.15;;;;;;;35.73;nan;101171.94;5100859;28;20051;-51
2023/06/28 02:49:10;;;;;;;9.88;3.33;;;;;;;36.86;nan;101158.72;5097663;28;20044;-51
2023/06/28 02:51:37;;;;;;;13.20;4.68;;;;;;;36.26;nan;101170.53;5099518;28;20055;-50
2023/06/28 02:54:04;;;;;;;15.80;4.22;;;;;;;35.16;nan;101175.56;5093486;28;20381;-51
2023/06/28 02:56:30;;;;;;;10.50;3.30;;;;;;;34.56;nan;101171.28;5097341;28;20047;-50
2023/06/28 02:58:57;;;;;;;14.20;4.72;;;;;;;37.02;nan;101176.47;5092735;28;20052;-50
2023/06/28 03:01:25;;;;;;;12.02;4.05;;;;;;;36.91;nan;101169.84;5096293;28;20059;-50
2023/06/28 03:03:52;;;;;;;10.38;3.97;;;;;;;36.30;nan;101169.84;5094639;28;20078;-50
2023/06/28 03:06:19;;;;;;;12.85;3.90;;;;;;;36.32;nan;101167.69;5100310;28;20040;-51
2023/06/28 03:08:46;;;;;;;12.60;3.55;;;;;;;36.60;nan;101173.69;5099728;28;20051;-50
2023/06/28 03:11:12;;;;;;;8.40;4.10;;;;;;;33.64;nan;101168.59;5099736;28;20055;-50
2023/06/28 03:13:40;;;;;;;15.80;3.65;;;;;;;33.08;nan;101164.34;5095592;28;20456;-50
2023/06/28 03:16:08;;;;;;;9.57;3.53;;;;;;;35.57;nan;101165.97;5094465;28;20044;-50
2023/06/28 03:18:36;;;;;;;11.32;4.03;;;;;;;34.28;nan;101168.03;5100079;28;20071;-52
2023/06/28 03:21:03;;;;;;;14.90;4.20;;;;;;;36.58;nan;101173.91;5102343;28;20059;-50
2023/06/28 03:23:29;;;;;;;9.50;3.53;;;;;;;35.28;nan;101173.81;5106440;28;20055;-50
2023/06/28 03:25:56;;;;;;;16.73;4.25;;;;;;;34.27;nan;101172.69;5104064;28;20458;-51
2023/06/28 03:28:23;;;;;;;10.88;3.38;;;;;;;36.70;nan;101169.31;5106350;28;20494;-50
2023/06/28 03:30:50;;;;;;;14.65;4.72;;;;;;;34.46;nan;101175.56;5099789;28;20475;-52
2023/06/28 03:33:16;;;;;;;10.48;4.45;;;;;;;34.40;nan;101176.47;5104284;28;20048;-50
2023/06/28 03:35:43;;;;;;;13.93;3.22;;;;;;;36.75;nan;101176.91;5123310;27;20051;-50
2023/06/28 03:38:10;;;;;;;11.75;3.95;;;;;;;37.76;nan;101174.16;5111857;27;20048;-49
2023/06/28 03:40:36;;;;;;;16.63;4.50;;;;;;;37.37;nan;101173.81;5100146;28;20044;-50
2023/06/28 03:43:03;;;;;;;12.35;3.55;;;;;;;36.63;nan;101185.06;5112530;28;20044;-49
2023/06/28 03:45:30;;;;;;;11.90;3.67;;;;;;;36.31;nan;101182.53;5116977;28;20207;-52
2023/06/28 03:47:56;;;;;;;10.38;3.78;;;;;;;36.63;nan;101179.56;5112187;28;20092;-51
2023/06/28 03:50:23;;;;;;;9.95;3.65;;;;;;;33.17;nan;101180.59;5116950;28;20059;-50
2023/06/28 03:52:50;;;;;;;11.80;3.13;;;;;;;36.14;nan;101181.44;5116350;28;20111;-50
2023/06/28 03:55:16;;;;;;;7.68;2.92;;;;;;;34.73;nan;101171.63;5116423;28;20047;-49
2023/06/28 03:57:43;;;;;;;10.13;3.78;;;;;;;37.64;nan;101174.16;5114426;27;20055;-49
2023/06/28 04:00:11;;;;;;;9.60;3.50;;;;;;;33.92;nan;101183.09;5137282;27;20059;-49
2023/06/28 04:02:39;;;;;;;10.77;3.13;;;;;;;33.71;nan;101182.31;5137174;27;20066;-51
2023/06/28 04:05:06;;;;;;;9.63;3.80;;;;;;;35.23;nan;101190.13;5129099;27;20735;-51
2023/06/28 04:07:33;;;;;;;10.60;4.03;;;;;;;37.17;nan;101195.31;5116994;28;20052;-51
2023/06/28 04:10:01;;;;;;;12.15;3.85;;;;;;;35.91;nan;101193.13;5115403;27;20067;-51
2023/06/28 04:12:27;;;;;;;9.65;3.97;;;;;;;33.77;nan;101184.19;5112637;28;20036;-51
2023/06/28 04:14:54;;;;;;;15.88;4.13;;;;;;;35.82;nan;101193.44;5096333;28;20063;-51
2023/06/28 04:17:21;;;;;;;12.45;3.53;;;;;;;37.20;nan;101181.09;5103059;28;20110;-51
2023/06/28 04:19:47;;;;;;;14.38;3.65;;;;;;;33.88;nan;101192.84;5101757;28;20058;-51
2023/06/28 04:22:14;;;;;;;12.68;3.80;;;;;;;34.41;nan;101189.94;5106459;28;20417;-50
2023/06/28 04:24:40;;;;;;;9.10;3.80;;;;;;;34.13;nan;101187.47;5110184;28;20059;-51
2023/06/28 04:27:09;;;;;;;8.55;3.33;;;;;;;35.60;nan;101192.97;5123811;27;20063;-50
2023/06/28 04:29:35;;;;;;;9.02;3.72;;;;;;;34.47;nan;101200.03;5135531;27;20055;-51
2023/06/28 04:32:02;;;;;;;10.23;3.45;;;;;;;36.61;nan;101198.22;5131222;27;20047;-51
2023/06/28 04:34:29;;;;;;;10.55;3.95;;;;;;;39.04;nan;101197.19;5095551;28;20048;-52
2023/06/28 04:36:57;;;;;;;15.60;3.72;;;;;;;36.19;nan;101209.09;5112746;28;20069;-50
2023/06/28 04:39:40;;;;;;;5.18;3.30;;;;;;;36.64;nan;101213.44;5110296;28;20047;-52
2023/06/28 04:42:07;;;;;;;13.82;4.13;;;;;;;35.09;nan;101207.75;5103337;28;20048;-51
2023/06/28 04:44:36;;;;;;;7.30;3.70;;;;;;;36.35;nan;101219.50;5100755;28;20047;-51
2023/06/28 04:47:04;;;;;;;15.07;3.67;;;;;;;38.36;nan;101206.09;5104874;28;20384;-50
2023/06/28 04:49:30;;;;;;;16.10;4.03;;;;;;;34.47;nan;101208.25;5094668;28;20071;-51
2023/06/28 04:51:57;;;;;;;10.10;3.42;;;;;;;35.88;nan;101216.41;5096676;28;20403;-51
2023/06/28 04:54:24;;;;;;;6.88;3.38;;;;;;;34.77;nan;101218.69;5094268;28;20055;-49
2023/06/28 04:56:51;;;;;;;15.05;3.63;;;;;;;32.74;nan;101223.69;5097509;28;20392;-51
2023/06/28 04:59:18;;;;;;;15.38;3.40;;;;;;;34.73;nan;101220.22;5095252;28;20048;-51
2023/06/28 05:01:44;;;;;;;15.70;3.85;;;;;;;35.57;nan;101226.44;5102034;28;20051;-51
2023/06/28 05:04:11;;;;;;;9.93;4.38;;;;;;;38.52;nan;101221.06;5106476;27;20052;-51
2023/06/28 05:06:38;;;;;;;14.95;3.80;;;;;;;39.23;nan;101218.00;5097389;28;20341;-51
2023/06/28 05:09:05;;;;;;;14.02;3.67;;;;;;;38.22;nan;101226.78;5108132;28;20052;-51
2023/06/28 05:11:31;;;;;;;16.02;4.10;;;;;;;38.78;nan;101220.75;5095897;28;20052;-51
2023/06/28 05:13:58;;;;;;;6.93;2.90;;;;;;;36.11;nan;101226.75;5095101;28;20044;-51
2023/06/28 05:16:27;;;;;;;15.95;4.00;;;;;;;35.37;nan;101225.75;5093917;28;20051;-52
2023/06/28 05:18:54;;;;;;;11.88;4.03;;;;;;;38.76;nan;101222.91;5098983;28;20505;-51
2023/06/28 05:21:20;;;;;;;19.38;3.28;;;;;;;38.99;nan;101227.47;5114193;28;20048;-50
2023/06/28 05:23:47;;;;;;;12.93;3.25;;;;;;;35.95;nan;101227.34;5114041;28;20052;-51
2023/06/28 05:26:14;;;;;;;16.05;3.50;;;;;;;34.16;nan;101215.31;5110823;28;20062;-52
2023/06/28 05:28:40;;;;;;;14.63;3.20;;;;;;;38.09;nan;101218.75;5119726;27;20112;-50
2023/06/28 05:31:07;;;;;;;10.13;3.72;;;;;;;37.39;nan;101212.16;5107162;27;20170;-50
2023/06/28 05:33:34;;;;;;;7.13;2.83;;;;;;;35.05;nan;101222.97;5101264;28;20040;-50
2023/06/28 05:36:01;;;;;;;10.60;3.20;;;;;;;36.87;nan;101223.75;5093691;28;20052;-50
2023/06/28 05:38:28;;;;;;;12.65;3.58;;;;;;;35.98;nan;101216.75;5111543;28;20044;-52
2023/06/28 05:41:11;;;;;;;13.35;3.47;;;;;;;37.20;nan;101223.25;5113614;28;20460;-50
2023/06/28 05:43:38;;;;;;;7.88;3.13;;;;;;;40.54;nan;101220.47;5110446;28;20448;-51
2023/06/28 05:46:04;;;;;;;9.75;2.53;;;;;;;38.47;nan;101211.84;5101570;28;20055;-50
2023/06/28 05:48:31;;;;;;;13.45;4.00;;;;;;;40.55;nan;101222.16;5103952;28;20055;-50
2023/06/28 05:50:58;;;;;;;7.20;2.70;;;;;;;38.54;nan;101227.19;5099609;28;20059;-50
2023/06/28 05:53:25;;;;;;;15.35;2.85;;;;;;;36.78;nan;101219.63;5103416;27;20044;-51
2023/06/28 05:55:52;;;;;;;9.68;2.88;;;;;;;39.48;nan;101214.00;5114057;27;20401;-50
2023/06/28 05:58:19;;;;;;;9.38;3.08;;;;;;;38.93;nan;101221.88;5110631;28;20047;-50
2023/06/28 06:00:45;;;;;;;14.05;2.67;;;;;;;40.78;nan;101214.63;5096410;28;20052;-50
2023/06/28 06:03:12;;;;;;;10.18;2.47;;;;;;;36.80;nan;101212.81;5093479;28;20052;-53
2023/06/28 06:05:39;;;;;;;12.80;4.03;;;;;;;35.80;nan;101211.22;5093941;28;20048;-50
2023/06/28 06:08:06;;;;;;;9.35;2.75;;;;;;;39.14;nan;101222.28;5109362;28;20062;-51
2023/06/28 06:10:32;;;;;;;5.80;2.03;;;;;;;37.46;nan;101218.38;5092796;28;20048;-50
2023/06/28 06:12:59;;;;;;;14.20;1.98;;;;;;;38.89;nan;101217.09;5093154;28;20055;-51
2023/06/28 06:15:25;;;;;;;14.63;2.20;;;;;;;40.56;nan;101223.81;5092721;28;20533;-51
2023/06/28 06:17:53;;;;;;;10.73;2.20;;;;;;;38.10;nan;101225.94;5094734;28;20055;-50
2023/06/28 06:20:19;;;;;;;11.63;2.45;;;;;;;36.29;nan;101228.72;5095456;28;20136;-51
2023/06/28 06:22:46;;;;;;;7.38;1.90;;;;;;;34.75;nan;101229.06;5109955;28;20054;-51
2023/06/28 06:25:12;;;;;;;4.80;2.25;;;;;;;37.48;nan;101225.31;5113277;27;20051;-51
2023/06/28 06:27:39;;;;;;;8.25;2.80;;;;;;;38.83;nan;101218.94;5110942;28;20059;-51
2023/06/28 06:30:06;;;;;;;11.57;2.20;;;;;;;38.61;nan;101221.53;5113382;28;20055;-51
2023/06/28 06:32:33;;;;;;;12.68;2.60;;;;;;;37.66;nan;101231.81;5113420;28;20131;-52
2023/06/28 06:35:01;;;;;;;14.00;2.53;;;;;;;40.11;nan;101238.75;5110738;28;20463;-51
2023/06/28 06:37:27;;;;;;;8.18;2.28;;;;;;;39.09;nan;101233.25;5113027;28;20047;-51
2023/06/28 06:39:54;;;;;;;9.68;2.30;;;;;;;38.95;nan;101229.09;5127267;27;20057;-50
2023/06/28 06:42:21;;;;;;;7.43;2.88;;;;;;;40.86;nan;101239.94;5131836;27;20393;-50
2023/06/28 06:44:47;;;;;;;5.68;2.33;;;;;;;39.03;nan;101237.78;5108748;28;20363;-50
2023/06/28 06:47:14;;;;;;;6.50;1.70;;;;;;;41.45;nan;101241.06;5112684;28;20055;-52
2023/06/28 06:49:40;;;;;;;7.55;2.40;;;;;;;41.63;nan;101242.56;5112817;28;20047;-50
2023/06/28 06:52:07;;;;;;;5.10;2.90;;;;;;;38.28;nan;101242.38;5112223;28;20056;-51
2023/06/28 06:54:34;;;;;;;9.57;2.40;;;;;;;38.68;nan;101254.53;5098887;28;20055;-51
2023/06/28 06:57:02;;;;;;;5.80;2.10;;;;;;;38.82;nan;101250.38;5113398;28;20591;-51
2023/06/28 06:59:28;;;;;;;11.60;2.28;;;;;;;37.09;nan;101246.94;5114399;28;20436;-51
2023/06/28 07:01:56;;;;;;;11.35;2.22;;;;;;;40.83;nan;101250.69;5111278;28;20089;-51
2023/06/28 07:04:23;;;;;;;7.32;2.63;;;;;;;38.37;nan;101251.13;5110240;28;20468;-51
2023/06/28 07:06:50;;;;;;;11.88;2.45;;;;;;;38.31;nan;101247.41;5094898;28;20497;-50
2023/06/28 07:09:18;;;;;;;10.77;2.50;;;;;;;39.40;nan;101255.84;5092585;28;20056;-50
2023/06/28 07:11:46;;;;;;;9.32;2.40;;;;;;;36.36;nan;101262.47;5094984;28;20513;-51
2023/06/28 07:14:13;;;;;;;6.07;1.92;;;;;;;37.97;nan;101257.38;5091381;28;20093;-50
2023/06/28 07:16:44;;;;;;;10.73;2.13;;;;;;;40.96;nan;101255.84;5126063;28;20340;-50
2023/06/28 07:19:12;;;;;;;7.90;2.45;;;;;;;42.76;nan;101253.44;5133364;27;20139;-50
2023/06/28 07:21:40;;;;;;;8.35;2.20;;;;;;;39.67;nan;101255.22;5115366;27;20531;-51
2023/06/28 07:24:07;;;;;;;9.00;2.33;;;;;;;41.63;nan;101250.91;5112460;28;20509;-51
2023/06/28 07:26:34;;;;;;;6.60;1.70;;;;;;;42.62;nan;101250.34;5111758;28;20133;-51
2023/06/28 07:29:01;;;;;;;8.65;2.28;;;;;;;38.16;nan;101253.44;5112206;28;20192;-51
2023/06/28 07:31:27;;;;;;;6.50;1.40;;;;;;;42.66;nan;101259.81;5100997;28;20055;-51
2023/06/28 07:33:54;;;;;;;16.90;2.70;;;;;;;40.14;nan;101260.38;5109866;28;20048;-51
2023/06/28 07:36:20;;;;;;;10.90;2.60;;;;;;;42.12;nan;101256.25;5104460;28;20047;-51
2023/06/28 07:38:49;;;;;;;7.85;1.92;;;;;;;39.26;nan;101250.66;5104248;28;20108;-50
2023/06/28 07:41:17;;;;;;;16.15;2.90;;;;;;;37.66;nan;101264.91;5098262;28;20063;-51
2023/06/28 07:43:43;;;;;;;4.35;1.48;;;;;;;39.24;nan;101255.59;5105070;28;20047;-49
2023/06/28 07:46:10;;;;;;;6.55;1.60;;;;;;;40.94;nan;101263.59;5111580;28;20059;-51
2023/06/28 07:48:37;;;;;;;10.57;1.83;;;;;;;40.76;nan;101261.13;5108886;28;20051;-51
2023/06/28 07:51:05;;;;;;;5.22;1.40;;;;;;;39.18;nan;101253.84;5110540;28;20062;-51
2023/06/28 07:53:32;;;;;;;5.85;1.40;;;;;;;40.36;nan;101255.69;5111854;28;20055;-51
2023/06/28 07:55:59;;;;;;;1.92;1.20;;;;;;;39.95;nan;101257.03;5111984;28;20416;-51
2023/06/28 07:58:26;;;;;;;8.70;1.35;;;;;;;41.69;nan;101252.63;5108663;28;20470;-51
2023/06/28 08:00:53;;;;;;;8.38;2.30;;;;;;;40.49;nan;101259.19;5112197;28;20396;-52
2023/06/28 08:03:20;;;;;;;5.40;2.65;;;;;;;38.45;nan;101256.28;5112005;28;20108;-51
2023/06/28 08:05:46;;;;;;;12.20;2.40;;;;;;;39.16;nan;101256.03;5106989;28;20052;-51
2023/06/28 08:08:16;;;;;;;10.55;1.85;;;;;;;39.57;nan;101262.25;5115029;28;20059;-50
2023/06/28 08:10:43;;;;;;;6.75;1.88;;;;;;;39.33;nan;101260.72;5114467;28;20071;-50
2023/06/28 08:13:09;;;;;;;8.80;2.45;;;;;;;40.10;nan;101253.66;5115550;28;20113;-50
2023/06/28 08:15:38;;;;;;;6.82;1.65;;;;;;;40.32;nan;101257.28;5109730;28;20500;-50
2023/06/28 08:18:08;;;;;;;9.60;2.15;;;;;;;42.53;nan;101250.03;5095308;28;20071;-50
2023/06/28 08:20:35;;;;;;;4.65;1.35;;;;;;;40.38;nan;101250.72;5095030;28;20060;-51
2023/06/28 08:23:03;;;;;;;6.57;1.63;;;;;;;39.73;nan;101252.28;5095383;28;20059;-50
2023/06/28 08:25:29;;;;;;;5.10;1.83;;;;;;;41.39;nan;101248.47;5104773;28;20059;-50
2023/06/28 08:27:56;;;;;;;5.25;1.30;;;;;;;38.76;nan;101269.88;5114307;28;20128;-50
2023/06/28 08:30:23;;;;;;;7.30;1.45;;;;;;;42.75;nan;101258.16;5115367;28;20055;-50
2023/06/28 08:32:49;;;;;;;6.43;2.28;;;;;;;43.89;nan;101259.91;5106111;28;20047;-50
2023/06/28 08:35:16;;;;;;;6.03;2.13;;;;;;;43.10;nan;101253.81;5092350;28;20048;-50
2023/06/28 08:37:43;;;;;;;11.90;1.98;;;;;;;44.55;nan;101266.38;5094069;28;20067;-50
2023/06/28 08:40:10;;;;;;;4.30;1.33;;;;;;;41.45;nan;101269.63;5099609;28;20048;-50
2023/06/28 08:42:40;;;;;;;4.30;1.38;;;;;;;43.04;nan;101257.69;5107819;28;20052;-50
2023/06/28 08:45:07;;;;;;;4.30;0.98;;;;;;;42.12;nan;101263.75;5093238;28;20097;-50
2023/06/28 08:47:36;;;;;;;2.83;1.35;;;;;;;41.18;nan;101268.78;5094259;28;20440;-50
2023/06/28 08:50:03;;;;;;;3.72;1.27;;;;;;;38.27;nan;101259.19;5093252;28;20071;-50
2023/06/28 08:52:33;;;;;;;14.52;2.30;;;;;;;40.15;nan;101256.50;5100514;28;20436;-50
2023/06/28 08:55:00;;;;;;;5.32;1.80;;;;;;;41.71;nan;101255.97;5093972;28;20047;-50
2023/06/28 08:57:27;;;;;;;7.57;1.67;;;;;;;37.25;nan;101239.09;5094477;28;20067;-50
2023/06/28 08:59:54;;;;;;;9.65;1.60;;;;;;;41.09;nan;101246.28;5094455;28;20055;-50
2023/06/28 09:02:22;;;;;;;4.53;1.25;;;;;;;40.12;nan;101259.75;5098747;28;20048;-50
2023/06/28 09:04:50;;;;;;;3.95;1.40;;;;;;;42.80;nan;101255.41;5093674;28;20048;-50
2023/06/28 09:07:19;;;;;;;6.75;2.00;;;;;;;42.90;nan;101258.19;5093898;28;20067;-50
2023/06/28 09:09:48;;;;;;;5.55;1.35;;;;;;;41.78;nan;101256.56;5096280;28;20052;-50
2023/06/28 09:12:16;;;;;;;2.83;1.23;;;;;;;41.61;nan;101244.78;5094602;28;20086;-50
2023/06/28 09:14:43;;;;;;;5.93;1.42;;;;;;;43.77;nan;101254.66;5093119;28;20113;-50
2023/06/28 09:17:10;;;;;;;12.25;2.13;;;;;;;44.09;nan;101258.16;5093762;28;20047;-50
2023/06/28 09:19:39;;;;;;;7.00;1.20;;;;;;;44.02;nan;101263.22;5100597;28;20048;-50
2023/06/28 09:22:08;;;;;;;7.53;1.75;;;;;;;43.12;nan;101257.13;5114227;28;20056;-50
2023/06/28 09:24:36;;;;;;;5.55;1.67;;;;;;;43.45;nan;101243.81;5107376;28;20039;-50
2023/06/28 09:27:05;;;;;;;4.18;1.58;;;;;;;43.62;nan;101249.09;5113609;28;20060;-50
2023/06/28 09:29:32;;;;;;;2.70;1.45;;;;;;;44.63;nan;101256.56;5107809;28;20062;-51
2023/06/28 09:32:00;;;;;;;5.10;1.58;;;;;;;45.33;nan;101258.31;5113818;28;20057;-50
2023/06/28 09:34:27;;;;;;;9.20;1.85;;;;;;;43.73;nan;101266.59;5113484;28;20063;-51
2023/06/28 09:36:55;;;;;;;4.60;1.33;;;;;;;43.16;nan;101258.25;5093706;28;20051;-50
2023/06/28 09:39:24;;;;;;;3.33;1.35;;;;;;;45.68;nan;101259.13;5113137;28;20105;-50
2023/06/28 09:41:53;;;;;;;3.72;1.77;;;;;;;44.13;nan;101259.28;5113494;28;20055;-51
2023/06/28 09:44:28;;;;;;;10.55;1.70;;;;;;;44.93;nan;101258.34;5104995;28;20405;-50
2023/06/28 09:47:02;;;;;;;4.43;0.90;;;;;;;44.78;nan;101253.72;5095307;28;20064;-51
2023/06/28 09:49:30;;;;;;;4.85;1.77;;;;;;;46.73;nan;101247.28;5102978;28;20058;-50
2023/06/28 09:52:02;;;;;;;9.98;1.52;;;;;;;44.19;nan;101255.41;5113250;28;20067;-50
2023/06/28 09:54:35;;;;;;;4.45;1.30;;;;;;;46.64;nan;101252.72;5108531;28;20044;-50
2023/06/28 09:57:02;;;;;;;7.97;1.65;;;;;;;43.53;nan;101257.16;5108033;28;20070;-51
2023/06/28 09:59:33;;;;;;;8.27;1.27;;;;;;;44.03;nan;101257.38;5107913;28;20055;-51
2023/06/28 10:02:07;;;;;;;9.82;1.60;;;;;;;46.13;nan;101254.19;5096466;28;20056;-50
2023/06/28 10:04:38;;;;;;;5.20;1.23;;;;;;;42.00;nan;101272.25;5095886;28;20143;-50
2023/06/28 10:07:06;;;;;;;6.07;1.67;;;;;;;38.90;nan;101266.56;5111867;28;20051;-51
2023/06/28 10:09:36;;;;;;;4.53;1.52;;;;;;;42.92;nan;101255.97;5094088;28;20052;-51
2023/06/28 10:12:11;;;;;;;4.20;1.10;;;;;;;42.15;nan;101260.44;5093458;28;20048;-51
2023/06/28 10:14:44;;;;;;;5.18;1.50;;;;;;;44.72;nan;101255.69;5101312;28;20048;-50
2023/06/28 10:17:11;;;;;;;3.53;1.05;;;;;;;45.00;nan;101256.06;5113475;28;20051;-50
2023/06/28 10:19:38;;;;;;;3.80;1.50;;;;;;;44.09;nan;101255.38;5113160;27;20051;-50
2023/06/28 10:22:05;;;;;;;6.50;1.10;;;;;;;43.98;nan;101257.38;5113890;28;20055;-51
2023/06/28 10:24:35;;;;;;;10.57;2.10;;;;;;;43.98;nan;101258.22;5091410;28;20056;-51
2023/06/28 10:27:03;;;;;;;3.97;1.33;;;;;;;45.93;nan;101260.84;5091535;28;20578;-51
2023/06/28 10:29:30;;;;;;;6.55;1.30;;;;;;;42.02;nan;101256.16;5092475;28;20056;-51
2023/06/28 10:31:57;;;;;;;9.45;1.20;;;;;;;40.59;nan;101255.69;5094948;28;20062;-51
2023/06/28 10:34:24;;;;;;;8.00;1.77;;;;;;;42.08;nan;101249.53;5112740;28;20047;-51
2023/06/28 10:36:51;;;;;;;7.07;1.70;;;;;;;45.20;nan;101248.69;5100071;28;20052;-51
2023/06/28 10:39:18;;;;;;;6.72;1.05;;;;;;;45.02;nan;101253.81;5092092;28;20059;-51
2023/06/28 10:41:45;;;;;;;4.47;1.30;;;;;;;43.10;nan;101259.38;5100106;28;20139;-51
2023/06/28 10:44:12;;;;;;;6.10;1.13;;;;;;;45.53;nan;101252.59;5112387;28;20355;-51
2023/06/28 10:46:38;;;;;;;5.85;1.55;;;;;;;42.98;nan;101253.22;5112375;28;20048;-51
2023/06/28 10:49:05;;;;;;;4.53;1.25;;;;;;;47.16;nan;101248.00;5111935;28;20055;-51
2023/06/28 10:51:34;;;;;;;5.20;1.50;;;;;;;45.40;nan;101259.69;5096938;28;20405;-50
2023/06/28 10:54:15;;;;;;;6.45;2.05;;;;;;;46.49;nan;101246.19;5107442;28;20047;-50
2023/06/28 10:56:50;;;;;;;5.07;1.38;;;;;;;46.55;nan;101243.38;5110276;28;20055;-51
2023/06/28 10:59:18;;;;;;;3.47;1.38;;;;;;;46.37;nan;101247.78;5099413;28;20058;-50
2023/06/28 11:01:55;;;;;;;6.50;1.23;;;;;;;44.67;nan;101258.50;5108809;28;20063;-51
2023/06/28 11:04:24;;;;;;;8.45;1.40;;;;;;;45.89;nan;101254.19;5112316;28;20048;-50
2023/06/28 11:07:03;;;;;;;5.90;1.65;;;;;;;44.46;nan;101245.78;5095544;28;20080;-50
2023/06/28 11:09:30;;;;;;;7.45;1.40;;;;;;;44.81;nan;101252.28;5099968;28;20448;-50
2023/06/28 11:11:58;;;;;;;6.75;1.40;;;;;;;45.81;nan;101258.47;5111522;28;20055;-50
2023/06/28 11:14:27;;;;;;;3.35;1.20;;;;;;;50.29;nan;101253.16;5111909;28;20043;-51
2023/06/28 11:17:05;;;;;;;4.10;1.52;;;;;;;50.81;nan;101247.59;5111180;28;20051;-50
2023/06/28 11:19:32;;;;;;;7.40;1.58;;;;;;;51.03;nan;101245.78;5092704;28;20432;-51
2023/06/28 11:22:01;;;;;;;3.72;0.93;;;;;;;49.12;nan;101266.47;5103471;28;20061;-51
2023/06/28 11:24:34;;;;;;;5.25;1.00;;;;;;;48.21;nan;101257.81;5111025;28;20382;-51
2023/06/28 11:27:09;;;;;;;7.53;1.30;;;;;;;51.15;nan;101261.97;5102597;28;20051;-51
2023/06/28 11:29:51;;;;;;;7.97;1.50;;;;;;;47.83;nan;101252.41;5092203;28;20048;-51
2023/06/28 11:32:31;;;;;;;3.17;1.35;;;;;;;44.13;nan;101248.13;5092044;28;20459;-50
2023/06/28 11:34:59;;;;;;;5.63;1.35;;;;;;;49.47;nan;101249.81;5090858;28;20048;-51
2023/06/28 11:37:30;;;;;;;5.43;1.38;;;;;;;51.27;nan;101258.47;5106749;28;20052;-51
2023/06/28 11:40:00;;;;;;;9.50;0.95;;;;;;;49.00;nan;101258.59;5113447;28;20102;-50
2023/06/28 11:42:26;;;;;;;3.00;0.98;;;;;;;49.81;nan;101248.34;5115243;28;20058;-50